sensor_id;sensor_type;location;lat;lon;timestamp;pressure;altitude;pressure_sealevel;temperature;humidity
69570;BME280;56781;42.292;23.146;2023-02-14T00:01:09;97073.41;;;-5.60;100.00
69570;BME280;56781;42.292;23.146;2023-02-14T00:03:38;97042.19;;;-6.10;100.00
69570;BME280;56781;42.292;23.146;2023-02-14T00:06:10;97065.28;;;-6.23;100.00
69570;BME280;56781;42.292;23.146;2023-02-14T00:08:37;97087.72;;;-5.80;100.00
69570;BME280;56781;42.292;23.146;2023-02-14T00:11:06;97047.69;;;-6.21;100.00
69570;BME280;56781;42.292;23.146;2023-02-14T00:13:37;97057.00;;;-6.11;100.00
69570;BME280;56781;42.292;23.146;2023-02-14T00:16:04;97056.66;;;-6.50;100.00
69570;BME280;56781;42.292;23.146;2023-02-14T00:18:31;97049.28;;;-6.29;100.00
69570;BME280;56781;42.292;23.146;2023-02-14T00:21:16;97069.88;;;-6.09;100.00
69570;BME280;56781;42.292;23.146;2023-02-14T00:23:43;97072.84;;;-6.04;100.00
69570;BME280;56781;42.292;23.146;2023-02-14T00:26:14;97081.84;;;-5.82;100.00
69570;BME280;56781;42.292;23.146;2023-02-14T00:28:42;97059.53;;;-6.27;100.00
69570;BME280;56781;42.292;23.146;2023-02-14T00:31:09;97062.09;;;-6.35;100.00
69570;BME280;56781;42.292;23.146;2023-02-14T00:33:37;97050.44;;;-6.57;100.00
69570;BME280;56781;42.292;23.146;2023-02-14T00:36:05;97061.72;;;-6.75;100.00
69570;BME280;56781;42.292;23.146;2023-02-14T00:38:33;97058.16;;;-6.48;100.00
69570;BME280;56781;42.292;23.146;2023-02-14T00:41:01;97049.47;;;-6.56;100.00
69570;BME280;56781;42.292;23.146;2023-02-14T00:43:28;97054.00;;;-6.58;100.00
69570;BME280;56781;42.292;23.146;2023-02-14T00:45:56;97047.16;;;-7.11;100.00
69570;BME280;56781;42.292;23.146;2023-02-14T00:48:23;97039.72;;;-7.06;100.00
69570;BME280;56781;42.292;23.146;2023-02-14T00:50:51;97056.81;;;-7.04;100.00
69570;BME280;56781;42.292;23.146;2023-02-14T00:53:18;97043.91;;;-7.14;100.00
69570;BME280;56781;42.292;23.146;2023-02-14T00:55:45;97078.19;;;-6.92;100.00
69570;BME280;56781;42.292;23.146;2023-02-14T00:58:12;97053.06;;;-6.83;100.00
69570;BME280;56781;42.292;23.146;2023-02-14T01:00:39;97054.28;;;-6.70;100.00
69570;BME280;56781;42.292;23.146;2023-02-14T01:03:07;97051.72;;;-6.61;100.00
69570;BME280;56781;42.292;23.146;2023-02-14T01:05:34;97053.38;;;-7.04;100.00
69570;BME280;56781;42.292;23.146;2023-02-14T01:08:01;97035.66;;;-7.45;100.00
69570;BME280;56781;42.292;23.146;2023-02-14T01:10:28;97032.50;;;-7.13;100.00
69570;BME280;56781;42.292;23.146;2023-02-14T01:12:55;97034.00;;;-7.28;100.00
69570;BME280;56781;42.292;23.146;2023-02-14T01:15:23;97021.25;;;-6.95;100.00
69570;BME280;56781;42.292;23.146;2023-02-14T01:17:50;97025.69;;;-7.14;100.00
69570;BME280;56781;42.292;23.146;2023-02-14T01:20:17;97014.78;;;-6.91;100.00
69570;BME280;56781;42.292;23.146;2023-02-14T01:22:44;97034.38;;;-7.23;100.00
69570;BME280;56781;42.292;23.146;2023-02-14T01:25:11;97032.44;;;-7.03;100.00
69570;BME280;56781;42.292;23.146;2023-02-14T01:27:39;97010.88;;;-6.87;100.00
69570;BME280;56781;42.292;23.146;2023-02-14T01:30:06;97019.91;;;-6.73;100.00
69570;BME280;56781;42.292;23.146;2023-02-14T01:32:34;97017.38;;;-6.91;100.00
69570;BME280;56781;42.292;23.146;2023-02-14T01:35:01;97051.25;;;-6.83;100.00
69570;BME280;56781;42.292;23.146;2023-02-14T01:37:29;97031.88;;;-6.88;100.00
69570;BME280;56781;42.292;23.146;2023-02-14T01:39:56;97029.19;;;-6.71;100.00
69570;BME280;56781;42.292;23.146;2023-02-14T01:42:23;97061.19;;;-6.52;100.00
69570;BME280;56781;42.292;23.146;2023-02-14T01:45:00;97014.38;;;-6.78;100.00
69570;BME280;56781;42.292;23.146;2023-02-14T01:47:33;97034.84;;;-6.49;100.00
69570;BME280;56781;42.292;23.146;2023-02-14T01:50:07;97007.59;;;-6.63;100.00
69570;BME280;56781;42.292;23.146;2023-02-14T01:52:43;97022.84;;;-6.42;100.00
69570;BME280;56781;42.292;23.146;2023-02-14T01:55:16;97001.72;;;-6.31;100.00
69570;BME280;56781;42.292;23.146;2023-02-14T01:57:53;97018.97;;;-6.30;100.00
69570;BME280;56781;42.292;23.146;2023-02-14T02:00:24;97052.63;;;-6.10;100.00
69570;BME280;56781;42.292;23.146;2023-02-14T02:03:10;97011.16;;;-6.30;100.00
69570;BME280;56781;42.292;23.146;2023-02-14T02:05:45;97007.50;;;-6.79;100.00
69570;BME280;56781;42.292;23.146;2023-02-14T02:08:13;96989.69;;;-6.32;100.00
69570;BME280;56781;42.292;23.146;2023-02-14T02:10:40;97007.00;;;-6.14;100.00
69570;BME280;56781;42.292;23.146;2023-02-14T02:13:15;97003.03;;;-6.35;100.00
69570;BME280;56781;42.292;23.146;2023-02-14T02:15:53;97010.13;;;-6.45;100.00
69570;BME280;56781;42.292;23.146;2023-02-14T02:26:57;96999.19;;;-6.06;100.00
69570;BME280;56781;42.292;23.146;2023-02-14T02:39:06;96997.97;;;-5.61;100.00
69570;BME280;56781;42.292;23.146;2023-02-14T02:47:53;96998.56;;;-5.67;100.00
69570;BME280;56781;42.292;23.146;2023-02-14T02:50:36;96999.44;;;-5.59;100.00
69570;BME280;56781;42.292;23.146;2023-02-14T02:56:26;96982.63;;;-5.81;100.00
69570;BME280;56781;42.292;23.146;2023-02-14T02:59:20;96968.28;;;-5.60;100.00
69570;BME280;56781;42.292;23.146;2023-02-14T03:04:28;96988.19;;;-5.51;100.00
69570;BME280;56781;42.292;23.146;2023-02-14T03:07:14;96977.22;;;-5.79;100.00
69570;BME280;56781;42.292;23.146;2023-02-14T03:18:08;96974.78;;;-6.48;100.00
69570;BME280;56781;42.292;23.146;2023-02-14T03:23:38;96956.97;;;-6.26;100.00
69570;BME280;56781;42.292;23.146;2023-02-14T03:26:17;97004.44;;;-5.82;100.00
69570;BME280;56781;42.292;23.146;2023-02-14T03:29:01;96961.56;;;-5.87;100.00
69570;BME280;56781;42.292;23.146;2023-02-14T03:31:53;96955.22;;;-5.85;100.00
69570;BME280;56781;42.292;23.146;2023-02-14T03:34:41;96936.81;;;-5.75;100.00
69570;BME280;56781;42.292;23.146;2023-02-14T03:37:35;96970.41;;;-5.39;100.00
69570;BME280;56781;42.292;23.146;2023-02-14T03:40:09;96940.25;;;-5.58;100.00
69570;BME280;56781;42.292;23.146;2023-02-14T03:42:51;96928.16;;;-6.08;100.00
69570;BME280;56781;42.292;23.146;2023-02-14T03:45:28;96941.38;;;-5.93;100.00
69570;BME280;56781;42.292;23.146;2023-02-14T03:47:59;96953.94;;;-5.81;100.00
69570;BME280;56781;42.292;23.146;2023-02-14T03:50:29;96936.81;;;-5.91;100.00
69570;BME280;56781;42.292;23.146;2023-02-14T03:52:58;96917.56;;;-5.90;100.00
69570;BME280;56781;42.292;23.146;2023-02-14T03:55:36;96927.34;;;-5.60;100.00
69570;BME280;56781;42.292;23.146;2023-02-14T03:58:19;96933.56;;;-5.52;100.00
69570;BME280;56781;42.292;23.146;2023-02-14T04:00:49;96916.78;;;-5.66;100.00
69570;BME280;56781;42.292;23.146;2023-02-14T04:03:19;96950.03;;;-5.52;100.00
69570;BME280;56781;42.292;23.146;2023-02-14T04:05:49;96938.13;;;-5.63;100.00
69570;BME280;56781;42.292;23.146;2023-02-14T04:08:23;96906.00;;;-5.80;100.00
69570;BME280;56781;42.292;23.146;2023-02-14T04:10:51;96956.56;;;-5.64;100.00
69570;BME280;56781;42.292;23.146;2023-02-14T04:13:19;96903.72;;;-5.74;100.00
69570;BME280;56781;42.292;23.146;2023-02-14T04:15:47;96912.22;;;-5.72;100.00
69570;BME280;56781;42.292;23.146;2023-02-14T04:18:14;96906.94;;;-6.30;100.00
69570;BME280;56781;42.292;23.146;2023-02-14T04:20:59;96903.69;;;-6.32;100.00
69570;BME280;56781;42.292;23.146;2023-02-14T04:23:27;96910.09;;;-6.10;100.00
69570;BME280;56781;42.292;23.146;2023-02-14T04:25:54;96904.41;;;-5.97;100.00
69570;BME280;56781;42.292;23.146;2023-02-14T04:28:21;96912.84;;;-5.79;100.00
69570;BME280;56781;42.292;23.146;2023-02-14T04:30:48;96903.72;;;-5.74;100.00
69570;BME280;56781;42.292;23.146;2023-02-14T04:33:16;96912.22;;;-5.72;100.00
69570;BME280;56781;42.292;23.146;2023-02-14T04:35:43;96912.53;;;-5.43;100.00
69570;BME280;56781;42.292;23.146;2023-02-14T04:38:10;96916.75;;;-5.33;100.00
69570;BME280;56781;42.292;23.146;2023-02-14T04:40:37;96919.72;;;-5.86;100.00
69570;BME280;56781;42.292;23.146;2023-02-14T04:43:04;96920.66;;;-5.70;100.00
69570;BME280;56781;42.292;23.146;2023-02-14T04:45:33;96908.59;;;-5.30;100.00
69570;BME280;56781;42.292;23.146;2023-02-14T04:48:00;96934.63;;;-5.06;100.00
69570;BME280;56781;42.292;23.146;2023-02-14T04:50:27;96928.41;;;-5.05;100.00
69570;BME280;56781;42.292;23.146;2023-02-14T04:52:54;96934.13;;;-4.93;100.00
69570;BME280;56781;42.292;23.146;2023-02-14T04:55:22;96897.09;;;-5.05;100.00
69570;BME280;56781;42.292;23.146;2023-02-14T04:57:49;96911.06;;;-4.81;100.00
69570;BME280;56781;42.292;23.146;2023-02-14T05:00:16;96926.72;;;-4.73;100.00
69570;BME280;56781;42.292;23.146;2023-02-14T05:02:44;96907.31;;;-4.79;100.00
69570;BME280;56781;42.292;23.146;2023-02-14T05:05:11;96879.63;;;-4.96;100.00
69570;BME280;56781;42.292;23.146;2023-02-14T05:07:38;96937.13;;;-4.65;100.00
69570;BME280;56781;42.292;23.146;2023-02-14T05:10:06;96881.06;;;-4.85;100.00
69570;BME280;56781;42.292;23.146;2023-02-14T05:12:33;96886.38;;;-4.71;100.00
69570;BME280;56781;42.292;23.146;2023-02-14T05:15:00;96871.69;;;-4.72;100.00
69570;BME280;56781;42.292;23.146;2023-02-14T05:17:27;96872.44;;;-4.55;100.00
69570;BME280;56781;42.292;23.146;2023-02-14T05:19:54;96883.88;;;-4.56;100.00
69570;BME280;56781;42.292;23.146;2023-02-14T05:22:22;96905.00;;;-4.42;100.00
69570;BME280;56781;42.292;23.146;2023-02-14T05:24:49;96906.28;;;-4.30;100.00
69570;BME280;56781;42.292;23.146;2023-02-14T05:27:16;96907.28;;;-4.31;100.00
69570;BME280;56781;42.292;23.146;2023-02-14T05:29:43;96899.13;;;-4.36;100.00
69570;BME280;56781;42.292;23.146;2023-02-14T05:32:10;96893.22;;;-4.30;100.00
69570;BME280;56781;42.292;23.146;2023-02-14T05:34:37;96873.50;;;-4.41;100.00
69570;BME280;56781;42.292;23.146;2023-02-14T05:37:04;96896.63;;;-4.30;100.00
69570;BME280;56781;42.292;23.146;2023-02-14T05:39:32;96898.22;;;-3.97;100.00
69570;BME280;56781;42.292;23.146;2023-02-14T05:41:59;96909.63;;;-3.90;100.00
69570;BME280;56781;42.292;23.146;2023-02-14T05:44:26;96887.41;;;-3.94;100.00
69570;BME280;56781;42.292;23.146;2023-02-14T05:46:53;96869.97;;;-4.02;100.00
69570;BME280;56781;42.292;23.146;2023-02-14T05:49:21;96896.56;;;-3.90;100.00
69570;BME280;56781;42.292;23.146;2023-02-14T05:51:48;96890.09;;;-3.80;100.00
69570;BME280;56781;42.292;23.146;2023-02-14T05:54:15;96890.56;;;-3.76;100.00
69570;BME280;56781;42.292;23.146;2023-02-14T05:56:42;96885.69;;;-3.79;100.00
69570;BME280;56781;42.292;23.146;2023-02-14T05:59:10;96884.97;;;-3.73;100.00
69570;BME280;56781;42.292;23.146;2023-02-14T06:01:37;96901.09;;;-3.46;100.00
69570;BME280;56781;42.292;23.146;2023-02-14T06:04:04;96928.59;;;-3.27;100.00
69570;BME280;56781;42.292;23.146;2023-02-14T06:06:31;96893.91;;;-3.44;100.00
69570;BME280;56781;42.292;23.146;2023-02-14T06:09:02;96900.78;;;-3.14;99.55
69570;BME280;56781;42.292;23.146;2023-02-14T06:11:29;96912.88;;;-3.13;99.55
69570;BME280;56781;42.292;23.146;2023-02-14T06:13:56;96887.34;;;-3.25;99.48
69570;BME280;56781;42.292;23.146;2023-02-14T06:16:23;96883.19;;;-3.20;99.85
69570;BME280;56781;42.292;23.146;2023-02-14T06:18:50;96890.59;;;-3.08;99.43
69570;BME280;56781;42.292;23.146;2023-02-14T06:21:17;96920.50;;;-2.88;99.04
69570;BME280;56781;42.292;23.146;2023-02-14T06:23:45;96877.06;;;-3.12;99.34
69570;BME280;56781;42.292;23.146;2023-02-14T06:26:12;96893.69;;;-2.90;99.54
69570;BME280;56781;42.292;23.146;2023-02-14T06:28:39;96899.53;;;-2.73;99.05
69570;BME280;56781;42.292;23.146;2023-02-14T06:31:14;96885.16;;;-2.77;99.42
69570;BME280;56781;42.292;23.146;2023-02-14T06:33:42;96940.91;;;-2.39;99.46
69570;BME280;56781;42.292;23.146;2023-02-14T06:36:09;96901.25;;;-2.65;99.11
69570;BME280;56781;42.292;23.146;2023-02-14T06:38:37;96924.38;;;-2.54;100.00
69570;BME280;56781;42.292;23.146;2023-02-14T06:41:05;96908.81;;;-2.41;99.76
69570;BME280;56781;42.292;23.146;2023-02-14T06:43:34;96913.22;;;-2.27;99.43
69570;BME280;56781;42.292;23.146;2023-02-14T06:46:01;96929.56;;;-1.88;98.19
69570;BME280;56781;42.292;23.146;2023-02-14T06:48:29;96899.84;;;-1.95;97.69
69570;BME280;56781;42.292;23.146;2023-02-14T06:50:56;96904.00;;;-2.01;98.46
69570;BME280;56781;42.292;23.146;2023-02-14T06:53:24;96894.47;;;-2.09;100.00
69570;BME280;56781;42.292;23.146;2023-02-14T06:55:51;96932.03;;;-1.65;99.77
69570;BME280;56781;42.292;23.146;2023-02-14T06:58:18;96943.38;;;-1.37;97.26
69570;BME280;56781;42.292;23.146;2023-02-14T07:00:46;96912.78;;;-1.51;98.36
69570;BME280;56781;42.292;23.146;2023-02-14T07:03:14;96937.06;;;-1.21;97.63
69570;BME280;56781;42.292;23.146;2023-02-14T07:05:42;96926.13;;;-1.24;96.75
69570;BME280;56781;42.292;23.146;2023-02-14T07:08:10;96884.78;;;-1.09;95.78
69570;BME280;56781;42.292;23.146;2023-02-14T07:10:38;96897.78;;;-1.01;95.09
69570;BME280;56781;42.292;23.146;2023-02-14T07:13:05;96896.03;;;-0.87;95.15
69570;BME280;56781;42.292;23.146;2023-02-14T07:15:32;96920.25;;;-0.63;94.39
69570;BME280;56781;42.292;23.146;2023-02-14T07:18:00;96884.63;;;-0.73;95.40
69570;BME280;56781;42.292;23.146;2023-02-14T07:20:27;96868.28;;;-0.55;94.27
69570;BME280;56781;42.292;23.146;2023-02-14T07:22:54;96879.19;;;-0.03;92.72
69570;BME280;56781;42.292;23.146;2023-02-14T07:25:21;96879.50;;;0.35;91.63
69570;BME280;56781;42.292;23.146;2023-02-14T07:27:49;96875.63;;;0.31;90.15
69570;BME280;56781;42.292;23.146;2023-02-14T07:30:16;96874.78;;;1.04;89.62
69570;BME280;56781;42.292;23.146;2023-02-14T07:32:43;96885.88;;;3.04;81.90
69570;BME280;56781;42.292;23.146;2023-02-14T07:35:10;96856.66;;;4.69;73.36
69570;BME280;56781;42.292;23.146;2023-02-14T07:37:40;96844.81;;;6.11;66.45
69570;BME280;56781;42.292;23.146;2023-02-14T07:40:07;96881.41;;;6.20;66.53
69570;BME280;56781;42.292;23.146;2023-02-14T07:42:41;96885.16;;;4.73;71.16
69570;BME280;56781;42.292;23.146;2023-02-14T07:45:08;96849.59;;;4.39;71.94
69570;BME280;56781;42.292;23.146;2023-02-14T07:47:49;96879.25;;;3.69;73.76
69570;BME280;56781;42.292;23.146;2023-02-14T07:50:16;96876.56;;;3.57;75.04
69570;BME280;56781;42.292;23.146;2023-02-14T07:52:44;96852.75;;;3.87;73.72
69570;BME280;56781;42.292;23.146;2023-02-14T07:55:12;96845.53;;;3.46;74.69
69570;BME280;56781;42.292;23.146;2023-02-14T07:57:39;96848.03;;;3.41;75.44
69570;BME280;56781;42.292;23.146;2023-02-14T08:00:06;96839.47;;;3.75;77.51
69570;BME280;56781;42.292;23.146;2023-02-14T08:02:34;96880.75;;;3.83;76.37
69570;BME280;56781;42.292;23.146;2023-02-14T08:05:01;96844.72;;;3.45;77.18
69570;BME280;56781;42.292;23.146;2023-02-14T08:07:28;96875.16;;;3.54;77.79
69570;BME280;56781;42.292;23.146;2023-02-14T08:09:55;96867.81;;;3.57;78.34
69570;BME280;56781;42.292;23.146;2023-02-14T08:12:22;96859.44;;;3.41;78.38
69570;BME280;56781;42.292;23.146;2023-02-14T08:15:08;96861.13;;;3.36;75.08
69570;BME280;56781;42.292;23.146;2023-02-14T08:17:55;96879.28;;;3.50;75.42
69570;BME280;56781;42.292;23.146;2023-02-14T08:20:22;96895.84;;;3.64;75.38
69570;BME280;56781;42.292;23.146;2023-02-14T08:22:49;96869.81;;;3.61;74.84
69570;BME280;56781;42.292;23.146;2023-02-14T08:25:16;96889.56;;;3.77;74.70
69570;BME280;56781;42.292;23.146;2023-02-14T08:27:43;96861.88;;;3.43;76.08
69570;BME280;56781;42.292;23.146;2023-02-14T08:30:10;96866.06;;;3.32;76.34
69570;BME280;56781;42.292;23.146;2023-02-14T08:32:38;96853.31;;;3.41;73.92
69570;BME280;56781;42.292;23.146;2023-02-14T08:35:06;96861.06;;;3.42;73.79
69570;BME280;56781;42.292;23.146;2023-02-14T08:37:33;96871.22;;;3.45;73.47
69570;BME280;56781;42.292;23.146;2023-02-14T08:40:00;96871.50;;;3.37;74.21
69570;BME280;56781;42.292;23.146;2023-02-14T08:42:27;96871.69;;;3.17;74.82
69570;BME280;56781;42.292;23.146;2023-02-14T08:44:55;96867.50;;;3.09;76.07
69570;BME280;56781;42.292;23.146;2023-02-14T08:47:22;96887.63;;;3.10;73.55
69570;BME280;56781;42.292;23.146;2023-02-14T08:49:49;96898.47;;;3.27;73.77
69570;BME280;56781;42.292;23.146;2023-02-14T08:52:16;96856.91;;;3.28;73.33
69570;BME280;56781;42.292;23.146;2023-02-14T08:54:43;96872.44;;;3.43;72.23
69570;BME280;56781;42.292;23.146;2023-02-14T08:57:10;96874.56;;;3.52;72.24
69570;BME280;56781;42.292;23.146;2023-02-14T08:59:38;96875.44;;;3.28;72.46
69570;BME280;56781;42.292;23.146;2023-02-14T09:02:05;96896.75;;;3.15;75.12
69570;BME280;56781;42.292;23.146;2023-02-14T09:04:34;96853.00;;;2.94;74.35
69570;BME280;56781;42.292;23.146;2023-02-14T09:07:01;96896.53;;;3.16;74.96
69570;BME280;56781;42.292;23.146;2023-02-14T09:09:30;96907.75;;;3.11;75.67
69570;BME280;56781;42.292;23.146;2023-02-14T09:12:05;96886.31;;;3.01;74.84
69570;BME280;56781;42.292;23.146;2023-02-14T09:14:38;96865.63;;;2.92;75.29
69570;BME280;56781;42.292;23.146;2023-02-14T09:17:06;96871.72;;;2.92;74.89
69570;BME280;56781;42.292;23.146;2023-02-14T09:19:34;96865.31;;;2.81;75.72
69570;BME280;56781;42.292;23.146;2023-02-14T09:22:03;96874.84;;;3.07;74.99
69570;BME280;56781;42.292;23.146;2023-02-14T09:24:31;96886.03;;;3.28;74.20
69570;BME280;56781;42.292;23.146;2023-02-14T09:26:59;96899.53;;;3.20;74.58
69570;BME280;56781;42.292;23.146;2023-02-14T09:29:30;96901.31;;;3.07;75.08
69570;BME280;56781;42.292;23.146;2023-02-14T09:31:59;96906.09;;;3.17;75.38
69570;BME280;56781;42.292;23.146;2023-02-14T09:34:28;96876.22;;;2.92;75.19
69570;BME280;56781;42.292;23.146;2023-02-14T09:37:13;96877.91;;;2.86;75.29
69570;BME280;56781;42.292;23.146;2023-02-14T09:39:41;96870.25;;;2.78;76.30
69570;BME280;56781;42.292;23.146;2023-02-14T09:45:27;96889.63;;;2.90;76.09
69570;BME280;56781;42.292;23.146;2023-02-14T09:50:47;96872.16;;;2.89;75.84
69570;BME280;56781;42.292;23.146;2023-02-14T09:55:58;96872.41;;;3.06;75.48
69570;BME280;56781;42.292;23.146;2023-02-14T09:58:42;96856.63;;;2.99;75.94
69570;BME280;56781;42.292;23.146;2023-02-14T10:04:26;96880.63;;;2.98;77.88
69570;BME280;56781;42.292;23.146;2023-02-14T10:10:18;96859.34;;;3.11;76.15
69570;BME280;56781;42.292;23.146;2023-02-14T10:13:13;96848.84;;;3.04;75.49
69570;BME280;56781;42.292;23.146;2023-02-14T10:15:47;96833.22;;;2.78;76.15
69570;BME280;56781;42.292;23.146;2023-02-14T10:18:28;96833.34;;;2.64;76.85
69570;BME280;56781;42.292;23.146;2023-02-14T10:20:59;96878.22;;;2.96;78.17
69570;BME280;56781;42.292;23.146;2023-02-14T10:23:32;96841.59;;;2.75;77.83
69570;BME280;56781;42.292;23.146;2023-02-14T10:26:11;96872.59;;;2.86;77.08
69570;BME280;56781;42.292;23.146;2023-02-14T10:28:46;96863.00;;;2.66;77.31
69570;BME280;56781;42.292;23.146;2023-02-14T10:31:24;96840.13;;;2.79;77.37
69570;BME280;56781;42.292;23.146;2023-02-14T10:33:58;96830.91;;;2.88;75.50
69570;BME280;56781;42.292;23.146;2023-02-14T10:36:39;96866.69;;;2.91;76.48
69570;BME280;56781;42.292;23.146;2023-02-14T10:41:57;96842.75;;;2.79;77.59
69570;BME280;56781;42.292;23.146;2023-02-14T10:44:54;96836.25;;;2.56;77.68
69570;BME280;56781;42.292;23.146;2023-02-14T10:47:35;96829.34;;;2.55;78.93
69570;BME280;56781;42.292;23.146;2023-02-14T10:50:13;96855.94;;;2.85;78.51
69570;BME280;56781;42.292;23.146;2023-02-14T10:52:57;96841.47;;;2.88;77.52
69570;BME280;56781;42.292;23.146;2023-02-14T10:55:46;96837.50;;;2.97;78.00
69570;BME280;56781;42.292;23.146;2023-02-14T10:58:18;96847.13;;;2.92;77.91
69570;BME280;56781;42.292;23.146;2023-02-14T11:03:17;96855.66;;;3.12;77.43
69570;BME280;56781;42.292;23.146;2023-02-14T11:05:46;96828.00;;;2.89;78.03
69570;BME280;56781;42.292;23.146;2023-02-14T11:08:30;96842.97;;;3.21;78.19
69570;BME280;56781;42.292;23.146;2023-02-14T11:11:07;96846.78;;;3.43;77.05
69570;BME280;56781;42.292;23.146;2023-02-14T11:13:38;96824.16;;;3.29;75.85
69570;BME280;56781;42.292;23.146;2023-02-14T11:16:10;96804.44;;;3.06;76.89
69570;BME280;56781;42.292;23.146;2023-02-14T11:18:39;96804.59;;;3.11;76.71
69570;BME280;56781;42.292;23.146;2023-02-14T11:21:12;96795.91;;;3.41;76.29
69570;BME280;56781;42.292;23.146;2023-02-14T11:23:45;96794.25;;;3.10;75.47
69570;BME280;56781;42.292;23.146;2023-02-14T11:26:25;96802.75;;;2.94;76.01
69570;BME280;56781;42.292;23.146;2023-02-14T11:28:59;96783.59;;;2.80;76.08
69570;BME280;56781;42.292;23.146;2023-02-14T11:31:30;96819.78;;;2.98;76.06
69570;BME280;56781;42.292;23.146;2023-02-14T11:33:59;96800.19;;;3.05;75.85
69570;BME280;56781;42.292;23.146;2023-02-14T11:36:31;96797.44;;;3.30;74.79
69570;BME280;56781;42.292;23.146;2023-02-14T11:39:29;96802.84;;;3.24;75.40
69570;BME280;56781;42.292;23.146;2023-02-14T11:42:00;96814.28;;;3.36;75.35
69570;BME280;56781;42.292;23.146;2023-02-14T11:44:32;96802.91;;;3.17;75.92
69570;BME280;56781;42.292;23.146;2023-02-14T11:47:27;96822.66;;;3.15;76.46
69570;BME280;56781;42.292;23.146;2023-02-14T11:49:59;96799.38;;;2.86;76.93
69570;BME280;56781;42.292;23.146;2023-02-14T11:52:27;96802.84;;;3.05;76.59
69570;BME280;56781;42.292;23.146;2023-02-14T11:54:56;96787.03;;;2.99;76.81
69570;BME280;56781;42.292;23.146;2023-02-14T11:57:34;96791.63;;;2.85;76.95
69570;BME280;56781;42.292;23.146;2023-02-14T12:00:13;96778.69;;;2.58;78.72
69570;BME280;56781;42.292;23.146;2023-02-14T12:02:44;96792.16;;;2.75;78.62
69570;BME280;56781;42.292;23.146;2023-02-14T12:05:25;96794.72;;;2.63;79.45
69570;BME280;56781;42.292;23.146;2023-02-14T12:07:59;96801.63;;;2.64;79.06
69570;BME280;56781;42.292;23.146;2023-02-14T12:10:29;96800.41;;;2.60;78.34
69570;BME280;56781;42.292;23.146;2023-02-14T12:13:00;96787.78;;;2.62;78.70
69570;BME280;56781;42.292;23.146;2023-02-14T12:20:56;96778.13;;;2.75;78.14
69570;BME280;56781;42.292;23.146;2023-02-14T12:29:30;96788.47;;;2.76;79.06
69570;BME280;56781;42.292;23.146;2023-02-14T12:32:06;96780.03;;;2.67;78.78
69570;BME280;56781;42.292;23.146;2023-02-14T12:34:37;96802.66;;;2.82;78.83
69570;BME280;56781;42.292;23.146;2023-02-14T12:37:16;96791.28;;;2.81;78.50
69570;BME280;56781;42.292;23.146;2023-02-14T12:40:27;96772.84;;;2.93;77.74
69570;BME280;56781;42.292;23.146;2023-02-14T12:58:04;96762.50;;;2.92;77.43
69570;BME280;56781;42.292;23.146;2023-02-14T13:09:05;96744.56;;;2.94;75.52
69570;BME280;56781;42.292;23.146;2023-02-14T13:11:53;96730.31;;;2.76;76.26
69570;BME280;56781;42.292;23.146;2023-02-14T13:17:11;96723.06;;;2.72;75.77
69570;BME280;56781;42.292;23.146;2023-02-14T13:19:58;96722.66;;;2.68;75.94
69570;BME280;56781;42.292;23.146;2023-02-14T13:22:30;96718.63;;;2.65;75.14
69570;BME280;56781;42.292;23.146;2023-02-14T13:25:03;96724.03;;;2.52;75.31
69570;BME280;56781;42.292;23.146;2023-02-14T13:27:35;96732.66;;;2.84;74.76
69570;BME280;56781;42.292;23.146;2023-02-14T13:30:15;96749.56;;;2.83;74.72
69570;BME280;56781;42.292;23.146;2023-02-14T13:32:45;96714.09;;;2.73;74.70
69570;BME280;56781;42.292;23.146;2023-02-14T13:35:16;96711.94;;;2.81;73.92
69570;BME280;56781;42.292;23.146;2023-02-14T13:37:48;96731.19;;;2.70;75.40
69570;BME280;56781;42.292;23.146;2023-02-14T13:40:20;96715.09;;;2.53;75.55
69570;BME280;56781;42.292;23.146;2023-02-14T13:48:12;96735.69;;;2.70;75.29
69570;BME280;56781;42.292;23.146;2023-02-14T13:51:02;96735.53;;;2.83;74.71
69570;BME280;56781;42.292;23.146;2023-02-14T13:53:34;96715.25;;;2.77;75.19
69570;BME280;56781;42.292;23.146;2023-02-14T13:58:57;96726.13;;;2.87;74.92
69570;BME280;56781;42.292;23.146;2023-02-14T14:01:41;96740.00;;;2.64;75.99
69570;BME280;56781;42.292;23.146;2023-02-14T14:17:35;96698.19;;;2.36;76.01
69570;BME280;56781;42.292;23.146;2023-02-14T14:22:47;96725.56;;;2.66;74.71
69570;BME280;56781;42.292;23.146;2023-02-14T14:25:40;96734.75;;;2.82;74.37
69570;BME280;56781;42.292;23.146;2023-02-14T14:28:18;96731.56;;;2.92;74.00
69570;BME280;56781;42.292;23.146;2023-02-14T14:30:46;96730.09;;;2.96;74.42
69570;BME280;56781;42.292;23.146;2023-02-14T14:33:24;96696.75;;;2.77;74.42
69570;BME280;56781;42.292;23.146;2023-02-14T14:36:05;96723.75;;;2.60;75.22
69570;BME280;56781;42.292;23.146;2023-02-14T14:38:46;96710.09;;;2.45;76.36
69570;BME280;56781;42.292;23.146;2023-02-14T14:41:13;96707.47;;;2.45;76.92
69570;BME280;56781;42.292;23.146;2023-02-14T14:43:41;96716.72;;;2.54;76.44
69570;BME280;56781;42.292;23.146;2023-02-14T14:46:11;96718.16;;;2.32;77.21
69570;BME280;56781;42.292;23.146;2023-02-14T14:48:42;96750.22;;;2.79;76.33
69570;BME280;56781;42.292;23.146;2023-02-14T14:51:31;96735.59;;;2.76;75.79
69570;BME280;56781;42.292;23.146;2023-02-14T14:54:04;96719.88;;;2.63;75.48
69570;BME280;56781;42.292;23.146;2023-02-14T14:59:18;96708.19;;;2.52;75.68
69570;BME280;56781;42.292;23.146;2023-02-14T15:01:45;96703.88;;;2.39;76.69
69570;BME280;56781;42.292;23.146;2023-02-14T15:06:40;96684.84;;;2.49;76.92
69570;BME280;56781;42.292;23.146;2023-02-14T15:09:30;96703.44;;;2.61;76.99
69570;BME280;56781;42.292;23.146;2023-02-14T15:11:59;96702.84;;;2.59;76.56
69570;BME280;56781;42.292;23.146;2023-02-14T15:14:48;96696.00;;;2.51;76.60
69570;BME280;56781;42.292;23.146;2023-02-14T15:17:25;96697.53;;;2.40;76.98
69570;BME280;56781;42.292;23.146;2023-02-14T15:20:01;96694.50;;;2.18;77.88
69570;BME280;56781;42.292;23.146;2023-02-14T15:22:46;96712.06;;;2.31;77.64